Terminal Aerodrome Forecast
Issued by NWS Wilmington, OH

Current Version | Previous Version | Graphics & Text | Print | Product List | Glossary On
Versions: 1 2 3 4 5 6 7 8 9 10 11 12 13 14 15 16 17 18 19 20
000
FTUS41 KILN 300411 AAA
TAFCMH
TAF AMD
KCMH 300411Z 3004/3024 27005KT P6SM SCT025 OVC130
      TEMPO 3004/3006 BKN025
     FM300600 34006KT P6SM SCT020
     FM301400 31007KT P6SM FEW035
     FM302200 VRB04KT P6SM SKC=

USA.gov is the U.S. government's official web portal to all federal, state and local government web resources and services.